Weather History for Big Rapids, MI

Change the Weather History Date:

Thursday, April 11, 2013

  Actual Average Record
Temperature  
Mean Temperature 35 °F -  
Max Temperature 38 °F 52 °F 79 °F (1977)
Min Temperature 32 °F 29 °F 10 °F (1973)
Degree Days  
Heating Degree Days 30    
Moisture  
Dew Point 30 °F    
Average Humidity 86    
Maximum Humidity 95    
Minimum Humidity 59    
Precipitation  
Precipitation 0.00 in - - ()
Sea Level Pressure  
Sea Level Pressure 29.86 in    
Wind  
Wind Speed 11 mph (ENE)    
Max Wind Speed 23 mph    
Max Gust Speed 38 mph    
Visibility 6 miles    
Events Snow    
Averages and records for this station are not official NWS values.
T = Trace of Precipitation, MM = Missing Value Source: NWS Daily Summary

Daily Weather History Graph

Daily Weather History Graph

Search for Another Location

Airport:

Trip Planner

Search our weather history database for the weather conditions in past years. The results will help you decide how hot, cold, wet, or windy it might be!

Date:

Astronomy

Apr. 11, 2013 Rise Set
Actual Time 7:05 AM EDT 8:21 PM EDT
Civil Twilight 6:35 AM EDT 8:50 PM EDT
Nautical Twilight 6:00 AM EDT 9:26 PM EDT
Astronomical Twilight 5:22 AM EDT 10:04 PM EDT
Moon 7:34 AM EDT (4/11) 9:58 PM EDT (4/11)
Length of Visible Light 14h 14m
Length of Day
13h 15m
New Moon, 2% of the Moon is Illuminated
Apr 11
New Moon
Apr 18
First Quarter
Apr 25
Full
May 2
Last Quarter
May 9
New

Hourly Weather History & Observations

Time (EDT) Temp. Windchill Dew Point Humidity Pressure Visibility Wind Dir Wind Speed Gust Speed Precip Events Conditions
12:15 AM 38.3 °F 32.5 °F 30.6 °F 74% 30.01 in 10.0 mi ENE 8.1 mph - N/A   Overcast
12:35 AM 38.3 °F 33.2 °F 27.9 °F 66% 29.99 in 10.0 mi ENE 6.9 mph 19.6 mph N/A   Overcast
12:54 AM 38.3 °F 31.9 °F 27.5 °F 65% 30.00 in 10.0 mi ENE 9.2 mph 16.1 mph N/A   Overcast
1:15 AM 38.3 °F 31.9 °F 26.6 °F 63% 29.99 in 10.0 mi ENE 9.2 mph - N/A   Overcast
1:35 AM 38.3 °F 31.9 °F 26.2 °F 62% 29.96 in 10.0 mi ENE 9.2 mph 19.6 mph N/A   Overcast
1:54 AM 38.3 °F 31.4 °F 25.7 °F 61% 29.97 in 10.0 mi ENE 10.4 mph - N/A   Overcast
2:15 AM 38.3 °F 30.1 °F 25.9 °F 61% 29.95 in 10.0 mi ENE 13.8 mph 17.3 mph N/A   Overcast
2:35 AM 38.3 °F 32.5 °F 25.0 °F 59% 29.97 in 10.0 mi East 8.1 mph 17.3 mph N/A   Overcast
2:54 AM 37.4 °F 32.8 °F 26.4 °F 65% 29.98 in 7.0 mi East 5.8 mph - N/A Snow Light Snow
3:15 AM 36.5 °F 31.8 °F 28.4 °F 72% 29.97 in 7.0 mi East 5.8 mph - N/A   Overcast
3:35 AM 36.0 °F 29.0 °F 28.8 °F 75% 29.95 in 7.0 mi ENE 9.2 mph 16.1 mph N/A Snow Light Snow
3:54 AM 35.6 °F 29.2 °F 29.3 °F 78% 29.94 in 4.0 mi ENE 8.1 mph - N/A Snow Light Snow
4:15 AM 35.4 °F 29.0 °F 29.8 °F 80% 29.94 in 4.0 mi ENE 8.1 mph 16.1 mph N/A Snow Light Snow
4:34 AM 35.1 °F 27.9 °F 30.0 °F 82% 29.96 in 4.0 mi East 9.2 mph 18.4 mph N/A Snow Light Snow
4:55 AM 34.9 °F 27.7 °F 30.0 °F 82% 29.96 in 5.0 mi ENE 9.2 mph 19.6 mph N/A Snow Light Snow
5:15 AM 34.7 °F 26.9 °F 30.2 °F 84% 29.96 in 5.0 mi ENE 10.4 mph 18.4 mph N/A Snow Light Snow
5:34 AM 34.7 °F 27.5 °F 30.2 °F 84% 29.94 in 7.0 mi ENE 9.2 mph 17.3 mph N/A Snow Light Snow
5:55 AM 34.2 °F 22.1 °F 30.0 °F 85% 29.79 in 7.0 mi ENE 23.0 mph 38.0 mph N/A Snow Light Snow
6:15 AM 34.3 °F 25.0 °F 28.9 °F 81% 29.84 in 10.0 mi East 13.8 mph 29.9 mph N/A   Overcast
6:34 AM 34.3 °F 29.2 °F 28.9 °F 81% 29.90 in 10.0 mi ENE 5.8 mph 21.9 mph N/A   Overcast
6:55 AM 34.5 °F 27.9 °F 29.1 °F 81% 29.95 in 10.0 mi East 8.1 mph 16.1 mph N/A   Overcast
7:15 AM 34.3 °F 24.6 °F 29.1 °F 81% 29.92 in 10.0 mi ENE 15.0 mph 20.7 mph N/A   Overcast
7:34 AM 34.3 °F 25.9 °F 29.1 °F 81% 29.93 in 10.0 mi East 11.5 mph 20.7 mph N/A   Overcast
7:55 AM 34.3 °F 25.9 °F 29.1 °F 81% 29.93 in 10.0 mi ENE 11.5 mph 21.9 mph N/A   Overcast
8:15 AM 34.2 °F 25.2 °F 29.1 °F 82% 29.92 in 10.0 mi ENE 12.7 mph 21.9 mph N/A   Overcast
8:34 AM 34.0 °F 25.0 °F 29.3 °F 83% 29.94 in 7.0 mi East 12.7 mph 21.9 mph N/A   Overcast
8:55 AM 33.8 °F 25.3 °F 30.0 °F 86% 29.93 in 5.0 mi East 11.5 mph 23.0 mph N/A   Overcast
9:15 AM 33.8 °F 23.9 °F 30.9 °F 89% 29.93 in 4.0 mi East 15.0 mph 21.9 mph N/A Snow Light Snow
9:35 AM 33.8 °F 24.8 °F 31.6 °F 92% 29.93 in 10.0 mi East 12.7 mph 18.4 mph N/A   Overcast
9:55 AM 33.8 °F 23.5 °F 30.9 °F 89% 29.92 in 10.0 mi East 16.1 mph 27.6 mph N/A   Overcast
10:14 AM 33.8 °F 24.8 °F 30.9 °F 89% 29.91 in 10.0 mi East 12.7 mph 25.3 mph N/A   Overcast
10:35 AM 34.0 °F 25.0 °F 31.6 °F 91% 29.91 in 10.0 mi ENE 12.7 mph 23.0 mph N/A   Overcast
10:55 AM 33.8 °F 23.9 °F 31.8 °F 92% 29.90 in 5.0 mi ENE 15.0 mph 24.2 mph N/A Snow Light Snow
11:14 AM 34.0 °F 23.0 °F 32.0 °F 92% 29.91 in 3.0 mi East 18.4 mph 24.2 mph N/A Snow Light Snow
11:35 AM 33.8 °F 24.3 °F 32.0 °F 93% 29.89 in 3.0 mi East 13.8 mph 21.9 mph N/A   Overcast
11:55 AM 33.8 °F 25.8 °F 31.8 °F 92% 29.89 in 3.0 mi East 10.4 mph 21.9 mph N/A Snow Light Snow
12:14 PM 33.8 °F 24.8 °F 31.3 °F 90% 29.88 in 3.0 mi East 12.7 mph 24.2 mph N/A   Overcast
12:35 PM 34.0 °F 24.2 °F 31.3 °F 90% 29.87 in 4.0 mi East 15.0 mph 21.9 mph N/A   Overcast
1:14 PM 34.0 °F 23.8 °F 31.6 °F 91% 29.85 in 10.0 mi East 16.1 mph 31.1 mph N/A   Overcast
1:35 PM 34.0 °F 23.8 °F 31.1 °F 89% 29.84 in 7.0 mi East 16.1 mph 23.0 mph N/A   Overcast
1:55 PM 34.3 °F 24.2 °F 31.1 °F 88% 29.84 in 5.0 mi East 16.1 mph 24.2 mph N/A   Overcast
2:14 PM 34.2 °F 24.8 °F 32.0 °F 92% 29.83 in 3.0 mi East 13.8 mph 23.0 mph N/A   Overcast
2:35 PM 34.0 °F 24.6 °F 32.0 °F 92% 29.82 in 1.8 mi East 13.8 mph 31.1 mph N/A Snow Light Snow
2:55 PM 34.0 °F 24.6 °F 32.0 °F 92% 29.81 in 4.0 mi East 13.8 mph 25.3 mph N/A Snow Light Snow
3:14 PM 34.0 °F 24.2 °F 32.0 °F 92% 29.82 in 2.5 mi East 15.0 mph 29.9 mph N/A Snow Light Snow
3:35 PM 33.8 °F 24.3 °F 32.0 °F 93% 29.82 in 3.0 mi East 13.8 mph 25.3 mph N/A Snow Light Snow
3:55 PM 33.8 °F 24.3 °F 32.0 °F 93% 29.81 in 2.0 mi East 13.8 mph 23.0 mph N/A Snow Light Snow
4:15 PM 33.4 °F 23.9 °F 31.8 °F 94% 29.80 in 1.2 mi East 13.8 mph 23.0 mph N/A Snow Light Snow
4:35 PM 33.4 °F 22.3 °F 31.8 °F 94% 29.79 in 1.5 mi ENE 18.4 mph 26.5 mph N/A Snow Light Snow
4:54 PM 33.4 °F 23.5 °F 31.8 °F 94% 29.78 in 1.5 mi East 15.0 mph 23.0 mph N/A Snow Light Snow
5:15 PM 33.3 °F 24.6 °F 31.8 °F 94% 29.77 in 2.0 mi East 11.5 mph 24.2 mph N/A Snow Light Snow
5:35 PM 33.3 °F 25.1 °F 31.8 °F 94% 29.78 in 1.8 mi East 10.4 mph 21.9 mph N/A Snow Light Snow
5:54 PM 33.1 °F 25.5 °F 31.6 °F 94% 29.79 in 1.0 mi East 9.2 mph 18.4 mph N/A Snow Light Snow
6:15 PM 33.3 °F 24.1 °F 31.5 °F 93% 29.78 in 2.5 mi East 12.7 mph 21.9 mph N/A Snow Light Snow
6:35 PM 33.1 °F 23.4 °F 31.1 °F 92% 29.77 in 2.0 mi East 13.8 mph 28.8 mph N/A Snow Light Snow
6:54 PM 32.9 °F 23.7 °F 31.1 °F 93% 29.77 in 4.0 mi ENE 12.7 mph 21.9 mph N/A   Overcast
7:15 PM 32.9 °F 24.1 °F 30.7 °F 92% 29.76 in 4.0 mi East 11.5 mph 26.5 mph N/A   Overcast
7:35 PM 32.5 °F 21.5 °F 30.7 °F 93% 29.76 in 1.5 mi East 17.3 mph 26.5 mph N/A Snow Light Snow
7:54 PM 32.5 °F 21.9 °F 30.7 °F 93% 29.75 in 1.8 mi ENE 16.1 mph 21.9 mph N/A Snow Light Snow
8:15 PM 32.9 °F 24.1 °F 30.9 °F 92% 29.74 in 2.5 mi East 11.5 mph 24.2 mph N/A Snow Light Snow
8:35 PM 32.9 °F 23.7 °F 31.1 °F 93% 29.74 in 4.0 mi East 12.7 mph 26.5 mph N/A Snow Light Snow
8:54 PM 33.1 °F 23.4 °F 31.1 °F 92% 29.74 in 4.0 mi ENE 13.8 mph 24.2 mph N/A Snow Light Snow
9:15 PM 33.1 °F 24.9 °F 31.5 °F 94% 29.74 in 2.0 mi East 10.4 mph 25.3 mph N/A Snow Light Snow
9:35 PM 33.3 °F 26.4 °F 31.6 °F 94% 29.73 in 3.0 mi East 8.1 mph 20.7 mph N/A Snow Light Snow
9:54 PM 33.3 °F 24.6 °F 31.6 °F 94% 29.74 in 4.0 mi East 11.5 mph - N/A Snow Light Snow
10:15 PM 33.1 °F 25.5 °F 31.6 °F 94% 29.73 in 2.0 mi East 9.2 mph 18.4 mph N/A Snow Light Snow
10:35 PM 32.9 °F 24.1 °F 31.6 °F 95% 29.72 in 3.0 mi East 11.5 mph 18.4 mph N/A Snow Light Snow
10:54 PM 32.9 °F 26.7 °F 31.3 °F 94% 29.71 in 4.0 mi East 6.9 mph 24.2 mph N/A   Overcast
11:15 PM 32.9 °F 25.3 °F 31.1 °F 93% 29.69 in 10.0 mi East 9.2 mph 20.7 mph N/A   Overcast
11:35 PM 32.9 °F 25.9 °F 30.9 °F 92% 29.69 in 10.0 mi ENE 8.1 mph 16.1 mph N/A   Overcast
11:54 PM 32.9 °F 23.7 °F 30.9 °F 92% 29.68 in 7.0 mi East 12.7 mph 21.9 mph N/A Snow Light Snow